createdAt,value
2022-09-14T00:01:24.027Z,16.3
2022-09-14T00:11:04.838Z,16.3
2022-09-14T00:21:07.393Z,16.2
2022-09-14T00:31:09.805Z,16.2
2022-09-14T00:51:14.360Z,16.1
2022-09-14T01:01:16.817Z,16.1
2022-09-14T01:11:18.585Z,16
2022-09-14T01:31:22.595Z,15.9
2022-09-14T01:41:24.516Z,15.9
2022-09-14T01:51:26.442Z,15.9
2022-09-14T02:01:28.826Z,15.8
2022-09-14T02:11:31.416Z,15.8
2022-09-14T02:31:35.874Z,15.7
2022-09-14T02:41:37.658Z,15.7
2022-09-14T02:51:39.595Z,15.7
2022-09-14T03:01:41.525Z,15.7
2022-09-14T03:11:44.089Z,15.7
2022-09-14T03:21:46.280Z,15.7
2022-09-14T03:41:50.612Z,15.6
2022-09-14T03:51:56.482Z,15.4
2022-09-14T04:01:54.859Z,15.2
2022-09-14T04:11:57.042Z,14.9
2022-09-14T04:21:59.420Z,14.8
2022-09-14T04:32:02.050Z,14.5
2022-09-14T04:42:03.804Z,14.4
2022-09-14T04:52:05.535Z,14.3
2022-09-14T05:02:08.099Z,14.3
2022-09-14T05:12:10.562Z,14.2
2022-09-14T05:22:12.729Z,14
2022-09-14T05:32:14.953Z,13.9
2022-09-14T05:42:17.244Z,13.8
2022-09-14T05:52:19.032Z,13.9
2022-09-14T06:02:21.272Z,13.7
2022-09-14T06:12:23.810Z,13.6
2022-09-14T06:22:26.323Z,13.6
2022-09-14T06:32:28.057Z,13.7
2022-09-14T06:42:29.716Z,13.5
2022-09-14T06:52:33.757Z,13.4
2022-09-14T07:02:34.220Z,13.2
2022-09-14T07:12:36.766Z,13.1
2022-09-14T07:22:38.542Z,12.9
2022-09-14T07:32:40.371Z,13
2022-09-14T07:42:42.481Z,12.7
2022-09-14T07:52:44.718Z,12.7
2022-09-14T08:02:46.546Z,12.6
2022-09-14T08:22:51.043Z,12.6
2022-09-14T08:32:52.995Z,12.6
2022-09-14T08:42:54.787Z,12.6
2022-09-14T08:52:56.999Z,12.7
2022-09-14T09:02:59.269Z,12.8
2022-09-14T09:13:01.437Z,13
2022-09-14T09:23:03.841Z,13.1
2022-09-14T09:33:06.111Z,13.1
2022-09-14T09:43:07.996Z,13.1
2022-09-14T09:53:09.671Z,13.1
2022-09-14T10:03:11.370Z,13.1
2022-09-14T10:13:13.695Z,12.9
2022-09-14T10:23:16.170Z,12.8
2022-09-14T10:33:18.723Z,12.7
2022-09-14T10:53:23.441Z,12.7
2022-09-14T11:03:25.150Z,12.6
2022-09-14T11:13:27.237Z,12.6
2022-09-14T11:23:29.672Z,12.7
2022-09-14T11:33:31.920Z,12.8
2022-09-14T11:43:34.456Z,12.9
2022-09-14T11:53:36.304Z,12.7
2022-09-14T12:03:37.996Z,12.5
2022-09-14T12:13:39.879Z,12.5
2022-09-14T12:23:41.933Z,12.8
2022-09-14T12:33:44.285Z,12.9
2022-09-14T12:43:45.946Z,13.1
2022-09-14T12:53:48.374Z,12.9
2022-09-14T13:03:50.700Z,13
2022-09-14T13:13:52.537Z,13.1
2022-09-14T13:23:54.375Z,13.2
2022-09-14T13:33:56.575Z,13.4
2022-09-14T13:43:58.354Z,13.4
2022-09-14T13:54:00.557Z,13.4
2022-09-14T14:04:03.187Z,13.4
2022-09-14T14:14:05.284Z,13.4
2022-09-14T14:24:12.847Z,13.3
2022-09-14T14:34:08.864Z,13.6
2022-09-14T14:44:10.874Z,13.2
2022-09-14T14:54:13.342Z,13.5
2022-09-14T15:04:15.558Z,13.4
2022-09-14T15:14:17.557Z,13.3
2022-09-14T15:24:19.314Z,13.4
2022-09-14T15:34:21.290Z,13.1
2022-09-14T15:44:23.670Z,13.3
2022-09-14T15:54:25.583Z,13.4
2022-09-14T16:04:27.259Z,13.2
2022-09-14T16:14:29.016Z,13.5
2022-09-14T16:24:31.508Z,13.4
2022-09-14T16:34:33.466Z,13.3
2022-09-14T16:44:35.475Z,13.7
2022-09-14T16:54:37.514Z,13.6
2022-09-14T17:04:39.574Z,13.7
2022-09-14T17:14:42.011Z,13.5
2022-09-14T17:24:44.055Z,13.5
2022-09-14T17:34:46.674Z,13.6
2022-09-14T17:44:49.307Z,13.5
2022-09-14T17:54:51.755Z,13.5
2022-09-14T18:04:53.876Z,13.4
2022-09-14T18:14:55.622Z,13.3
2022-09-14T18:24:57.737Z,13.3
2022-09-14T18:34:59.936Z,13.3
2022-09-14T18:45:02.467Z,13.2
2022-09-14T18:55:04.206Z,13.1
2022-09-14T19:05:06.786Z,12.9
2022-09-14T19:15:09.414Z,12.8
2022-09-14T19:25:11.173Z,12.8
2022-09-14T19:35:13.104Z,12.6
2022-09-14T19:45:15.227Z,12.5
2022-09-14T19:55:17.778Z,12.6
2022-09-14T20:05:20.356Z,12.3
2022-09-14T20:15:22.025Z,12.5
2022-09-14T20:25:24.572Z,12.3
2022-09-14T20:35:26.243Z,12.2
2022-09-14T20:45:28.716Z,12.6
2022-09-14T20:55:31.011Z,12
2022-09-14T21:05:32.969Z,12
2022-09-14T21:15:35.355Z,11.8
2022-09-14T21:25:37.734Z,11.7
2022-09-14T21:35:40.034Z,11.7
2022-09-14T21:45:42.021Z,14.2
2022-09-14T21:55:44.267Z,14.2
2022-09-14T22:05:46.755Z,14.2
2022-09-14T22:15:48.842Z,0.9
2022-09-14T22:25:51.244Z,0.9
2022-09-14T22:35:53.113Z,0
2022-09-14T22:46:02.251Z,0
2022-09-14T23:06:06.437Z,0
2022-09-14T23:16:08.783Z,0
2022-09-14T23:26:10.763Z,0
2022-09-14T23:46:14.735Z,0
2022-09-14T23:56:17.128Z,0
